createdAt,value
2022-08-04T00:00:55.007Z,48.14
2022-08-04T00:04:03.229Z,48.30
2022-08-04T00:07:10.165Z,48.25
2022-08-04T00:10:17.800Z,48.48
2022-08-04T00:13:24.438Z,48.57
2022-08-04T00:16:32.983Z,48.82
2022-08-04T00:19:42.937Z,49.00
2022-08-04T00:22:47.108Z,48.92
2022-08-04T00:25:54.237Z,48.81
2022-08-04T00:28:57.139Z,48.91
2022-08-04T00:32:00.508Z,48.68
2022-08-04T00:35:03.976Z,49.10
2022-08-04T00:38:06.881Z,49.21
2022-08-04T00:41:20.941Z,49.61
2022-08-04T00:44:29.432Z,49.99
2022-08-04T00:47:43.336Z,49.79
2022-08-04T00:50:47.277Z,50.28
2022-08-04T00:53:56.736Z,50.26
2022-08-04T00:57:30.177Z,50.38
2022-08-04T01:00:45.515Z,50.22
2022-08-04T01:03:53.037Z,50.48
2022-08-04T01:07:33.193Z,50.76
2022-08-04T01:10:42.939Z,50.99
2022-08-04T01:14:04.660Z,51.48
2022-08-04T01:17:19.745Z,51.49
2022-08-04T01:20:25.953Z,51.60
2022-08-04T01:23:45.327Z,51.88
2022-08-04T01:26:57.284Z,51.57
2022-08-04T01:30:02.599Z,51.51
2022-08-04T01:33:06.848Z,52.26
2022-08-04T01:36:11.119Z,52.46
2022-08-04T01:39:28.123Z,52.56
2022-08-04T01:42:33.543Z,52.77
2022-08-04T01:45:38.889Z,53.02
2022-08-04T01:48:42.424Z,52.95
2022-08-04T01:51:45.483Z,52.77
2022-08-04T01:54:48.259Z,52.69
2022-08-04T01:57:52.558Z,53.00
2022-08-04T02:01:02.240Z,53.08
2022-08-04T02:04:21.324Z,53.24
2022-08-04T02:07:34.709Z,53.42
2022-08-04T02:10:50.500Z,53.57
2022-08-04T02:13:56.178Z,53.42
2022-08-04T02:17:00.366Z,53.44
2022-08-04T02:20:08.039Z,53.41
2022-08-04T02:23:16.900Z,53.61
2022-08-04T02:26:22.616Z,53.98
2022-08-04T02:29:32.223Z,54.06
2022-08-04T02:32:40.203Z,54.45
2022-08-04T02:35:45.506Z,54.41
2022-08-04T02:39:00.087Z,54.39
2022-08-04T02:42:04.875Z,54.22
2022-08-04T02:45:08.946Z,54.32
2022-08-04T02:48:29.911Z,53.92
2022-08-04T02:51:36.482Z,54.25
2022-08-04T02:54:41.280Z,54.53
2022-08-04T02:57:45.334Z,54.32
2022-08-04T03:00:49.672Z,54.35
2022-08-04T03:04:01.554Z,54.80
2022-08-04T03:07:40.197Z,54.34
2022-08-04T03:11:17.677Z,53.89
2022-08-04T03:14:44.254Z,54.37
2022-08-04T03:18:03.156Z,54.75
2022-08-04T03:21:35.226Z,54.36
2022-08-04T03:24:57.891Z,54.60
2022-08-04T03:28:24.462Z,54.65
2022-08-04T03:31:46.478Z,54.48
2022-08-04T03:35:23.051Z,54.67
2022-08-04T03:38:57.000Z,54.76
2022-08-04T03:42:16.113Z,54.89
2022-08-04T03:45:42.827Z,54.97
2022-08-04T03:49:27.852Z,55.36
2022-08-04T03:53:12.320Z,55.46
2022-08-04T03:56:33.710Z,55.29
2022-08-04T03:59:52.121Z,55.70
2022-08-04T04:03:28.734Z,55.85
2022-08-04T04:06:54.017Z,55.72
2022-08-04T04:10:19.114Z,55.70
2022-08-04T04:13:37.344Z,55.35
2022-08-04T04:17:05.459Z,55.33
2022-08-04T04:20:24.545Z,55.42
2022-08-04T04:23:50.121Z,55.14
2022-08-04T04:27:00.616Z,55.21
2022-08-04T04:30:10.404Z,55.29
2022-08-04T04:33:27.532Z,55.05
2022-08-04T04:36:36.183Z,54.94
2022-08-04T04:39:46.916Z,55.18
2022-08-04T04:43:15.385Z,55.50
2022-08-04T04:46:33.839Z,55.21
2022-08-04T04:49:42.388Z,55.10
2022-08-04T04:52:49.032Z,54.93
2022-08-04T04:55:57.793Z,54.77
2022-08-04T04:59:01.247Z,54.83
2022-08-04T05:02:23.589Z,54.51
2022-08-04T05:05:33.576Z,54.25
2022-08-04T05:09:00.397Z,53.98
2022-08-04T05:12:45.006Z,53.75
2022-08-04T05:15:44.437Z,53.62
2022-08-04T05:18:53.688Z,53.37
2022-08-04T05:22:01.793Z,53.01
2022-08-04T05:25:09.468Z,52.52
2022-08-04T05:28:16.824Z,52.35
2022-08-04T05:31:23.104Z,52.60
2022-08-04T05:34:29.389Z,52.63
2022-08-04T05:37:33.520Z,52.43
2022-08-04T05:40:43.956Z,52.71
2022-08-04T05:43:47.690Z,52.54
2022-08-04T05:46:54.806Z,52.02
2022-08-04T05:50:01.884Z,52.15
2022-08-04T05:53:06.372Z,51.79
2022-08-04T05:56:09.800Z,51.70
2022-08-04T05:59:14.532Z,50.90
2022-08-04T06:02:19.387Z,50.62
2022-08-04T06:05:25.076Z,50.46
2022-08-04T06:08:27.813Z,49.88
2022-08-04T06:11:30.617Z,48.84
2022-08-04T06:14:59.445Z,49.17
2022-08-04T06:18:33.146Z,48.44
2022-08-04T06:21:29.477Z,48.88
2022-08-04T06:24:33.619Z,48.18
2022-08-04T06:27:36.868Z,47.57
2022-08-04T06:30:41.832Z,47.49
2022-08-04T06:33:54.899Z,47.29
2022-08-04T06:37:00.135Z,46.81
2022-08-04T06:40:29.571Z,46.85
2022-08-04T06:43:29.572Z,46.46
2022-08-04T06:46:36.725Z,46.80
2022-08-04T06:49:55.226Z,46.38
2022-08-04T06:53:07.133Z,46.08
2022-08-04T06:56:11.050Z,45.68
2022-08-04T06:59:16.121Z,45.34
2022-08-04T07:02:24.063Z,45.64
2022-08-04T07:05:27.395Z,45.30
2022-08-04T07:08:31.405Z,44.92
2022-08-04T07:11:41.890Z,44.66
2022-08-04T07:14:48.695Z,44.15
2022-08-04T07:17:53.582Z,43.95
2022-08-04T07:20:57.392Z,43.66
2022-08-04T07:24:03.687Z,43.45
2022-08-04T07:27:08.569Z,42.80
2022-08-04T07:30:12.810Z,42.67
2022-08-04T07:33:16.176Z,42.15
2022-08-04T07:36:19.723Z,41.83
2022-08-04T07:39:28.123Z,41.39
2022-08-04T07:42:32.260Z,40.12
2022-08-04T07:45:35.331Z,39.84
2022-08-04T07:48:39.093Z,39.55
2022-08-04T07:51:41.999Z,39.55
2022-08-04T07:54:46.494Z,37.03
2022-08-04T07:57:49.660Z,37.68
2022-08-04T08:00:56.041Z,34.75
2022-08-04T08:04:01.379Z,33.35
2022-08-04T08:07:04.515Z,34.62
2022-08-04T08:10:13.751Z,32.93
2022-08-04T08:13:18.215Z,33.07
2022-08-04T08:16:21.263Z,32.43
2022-08-04T08:19:28.517Z,32.10
2022-08-04T08:22:33.237Z,32.12
2022-08-04T08:25:37.453Z,31.76
2022-08-04T08:28:44.180Z,32.10
2022-08-04T08:31:56.570Z,31.10
2022-08-04T08:35:01.936Z,30.87
2022-08-04T08:38:06.736Z,31.31
2022-08-04T08:41:46.139Z,31.04
2022-08-04T08:45:25.765Z,31.23
2022-08-04T08:49:11.312Z,30.33
2022-08-04T08:52:56.271Z,30.43
2022-08-04T08:56:14.331Z,31.17
2022-08-04T08:59:28.800Z,31.07
2022-08-04T09:03:03.981Z,30.42
2022-08-04T09:06:29.047Z,30.14
2022-08-04T09:09:49.066Z,30.36
2022-08-04T09:12:55.501Z,30.38
2022-08-04T09:16:02.541Z,30.61
2022-08-04T09:19:22.924Z,30.84
2022-08-04T09:22:41.324Z,30.67
2022-08-04T09:25:49.897Z,30.09
2022-08-04T09:28:55.924Z,29.49
2022-08-04T09:32:07.346Z,30.02
2022-08-04T09:35:19.508Z,29.71
2022-08-04T09:38:29.623Z,30.07
2022-08-04T09:41:47.977Z,29.35
2022-08-04T09:45:06.440Z,28.90
2022-08-04T09:48:14.217Z,28.72
2022-08-04T09:51:27.313Z,27.65
2022-08-04T09:54:54.471Z,27.50
2022-08-04T09:58:04.236Z,26.89
2022-08-04T10:01:09.686Z,28.07
2022-08-04T10:04:18.143Z,27.49
2022-08-04T10:07:59.591Z,27.62
2022-08-04T10:11:12.574Z,27.00
2022-08-04T10:14:29.265Z,26.30
2022-08-04T10:17:39.279Z,24.05
2022-08-04T10:21:08.947Z,25.24
2022-08-04T10:24:26.201Z,25.71
2022-08-04T10:27:33.925Z,24.26
2022-08-04T10:30:40.546Z,24.48
2022-08-04T10:33:48.679Z,25.66
2022-08-04T10:36:58.703Z,25.25
2022-08-04T10:40:25.865Z,24.52
2022-08-04T10:43:49.578Z,23.94
2022-08-04T10:46:55.749Z,23.68
2022-08-04T10:50:01.906Z,23.13
2022-08-04T10:53:07.824Z,23.19
2022-08-04T10:56:22.629Z,23.04
2022-08-04T10:59:29.053Z,23.33
2022-08-04T11:02:39.465Z,22.16
2022-08-04T11:05:47.649Z,22.19
2022-08-04T11:08:53.575Z,21.20
2022-08-04T11:12:05.444Z,20.61
2022-08-04T11:15:12.363Z,20.73
2022-08-04T11:18:19.725Z,20.54
2022-08-04T11:21:27.316Z,20.51
2022-08-04T11:24:37.533Z,20.30
2022-08-04T11:27:51.004Z,19.99
2022-08-04T11:30:58.423Z,20.07
2022-08-04T11:34:05.717Z,19.70
2022-08-04T11:37:15.041Z,19.98
2022-08-04T11:40:25.459Z,19.36
2022-08-04T11:44:01.662Z,18.94
2022-08-04T11:47:10.455Z,19.20
2022-08-04T11:50:18.866Z,18.49
2022-08-04T11:53:24.862Z,18.27
2022-08-04T11:56:37.017Z,18.09
2022-08-04T11:59:43.077Z,17.80
2022-08-04T12:03:07.711Z,17.36
2022-08-04T12:06:18.609Z,17.65
2022-08-04T12:09:30.597Z,16.95
2022-08-04T12:12:40.726Z,16.72
2022-08-04T12:15:52.731Z,17.78
2022-08-04T12:18:58.782Z,18.21
2022-08-04T12:22:05.877Z,18.21
2022-08-04T12:25:14.378Z,17.98
2022-08-04T12:28:21.259Z,17.82
2022-08-04T12:31:28.704Z,18.00
2022-08-04T12:34:36.380Z,18.69
2022-08-04T12:37:46.921Z,18.78
2022-08-04T12:40:51.287Z,18.91
2022-08-04T12:43:55.427Z,19.01
2022-08-04T12:47:26.937Z,18.73
2022-08-04T12:50:24.128Z,19.31
2022-08-04T12:53:31.809Z,19.09
2022-08-04T12:56:35.405Z,18.04
2022-08-04T12:59:41.313Z,13.88
2022-08-04T13:02:47.092Z,12.00
2022-08-04T13:05:50.359Z,11.39
2022-08-04T13:08:56.067Z,8.03
2022-08-04T13:12:02.058Z,6.76
2022-08-04T13:15:10.773Z,7.98
2022-08-04T13:18:27.379Z,6.13
2022-08-04T13:21:50.166Z,5.54
2022-08-04T13:24:56.811Z,5.50
2022-08-04T13:28:22.274Z,5.34
2022-08-04T13:31:35.582Z,6.70
2022-08-04T13:34:42.733Z,5.76
2022-08-04T13:37:53.874Z,5.26
2022-08-04T13:40:58.581Z,4.42
2022-08-04T13:44:19.177Z,3.74
2022-08-04T13:47:28.339Z,2.86
2022-08-04T13:50:33.499Z,3.44
2022-08-04T13:53:37.739Z,2.79
2022-08-04T13:56:45.051Z,5.40
2022-08-04T13:59:53.960Z,5.87
2022-08-04T14:03:01.730Z,4.50
2022-08-04T14:06:25.721Z,4.17
2022-08-04T14:09:35.364Z,3.65
2022-08-04T14:12:47.125Z,4.09
2022-08-04T14:16:01.256Z,5.76
2022-08-04T14:19:08.267Z,7.17
2022-08-04T14:22:30.115Z,5.23
2022-08-04T14:25:35.600Z,4.81
2022-08-04T14:29:08.482Z,3.80
2022-08-04T14:32:06.036Z,4.98
2022-08-04T14:35:16.397Z,8.90
2022-08-04T14:38:20.875Z,9.10
2022-08-04T14:41:26.201Z,6.60
2022-08-04T14:44:29.146Z,5.23
2022-08-04T14:47:52.955Z,4.77
2022-08-04T14:50:56.311Z,2.72
2022-08-04T14:54:05.021Z,2.82
2022-08-04T14:57:10.904Z,2.76
2022-08-04T15:00:18.902Z,2.26
2022-08-04T15:03:22.758Z,2.16
2022-08-04T15:06:27.502Z,2.49
2022-08-04T15:09:32.142Z,2.51
2022-08-04T15:12:35.005Z,3.02
2022-08-04T15:15:37.777Z,3.19
2022-08-04T15:18:40.446Z,3.20
2022-08-04T15:21:43.404Z,2.70
2022-08-04T15:24:48.296Z,3.11
2022-08-04T15:27:58.495Z,3.81
2022-08-04T15:31:04.155Z,3.23
2022-08-04T15:34:08.070Z,3.87
2022-08-04T15:37:10.874Z,3.82
2022-08-04T15:40:16.491Z,2.43
2022-08-04T15:43:45.833Z,2.69
2022-08-04T15:47:13.271Z,2.87
2022-08-04T15:50:28.167Z,2.29
2022-08-04T15:54:01.241Z,2.47
2022-08-04T15:57:01.292Z,4.25
2022-08-04T16:00:11.259Z,3.57
2022-08-04T16:03:58.338Z,3.06
2022-08-04T16:07:06.437Z,3.68
2022-08-04T16:10:38.006Z,3.81
2022-08-04T16:14:12.089Z,2.95
2022-08-04T16:17:16.990Z,4.09
2022-08-04T16:20:19.940Z,4.01
2022-08-04T16:23:54.937Z,3.74
2022-08-04T16:27:00.377Z,4.39
2022-08-04T16:30:07.540Z,3.24
2022-08-04T16:33:12.260Z,3.90
2022-08-04T16:36:16.777Z,4.10
2022-08-04T16:39:21.160Z,3.33
2022-08-04T16:42:31.882Z,3.54
2022-08-04T16:45:47.172Z,3.39
2022-08-04T16:49:06.933Z,3.99
2022-08-04T16:52:13.675Z,4.10
2022-08-04T16:55:17.660Z,4.06
2022-08-04T16:58:27.272Z,4.84
2022-08-04T17:01:37.394Z,4.82
2022-08-04T17:04:40.112Z,4.58
2022-08-04T17:08:07.151Z,5.17
2022-08-04T17:11:15.573Z,6.20
2022-08-04T17:14:26.449Z,7.17
2022-08-04T17:17:59.155Z,10.82
2022-08-04T17:21:01.897Z,12.78
2022-08-04T17:24:15.620Z,14.86
2022-08-04T17:28:08.719Z,15.41
2022-08-04T17:30:47.725Z,16.54
2022-08-04T17:33:56.736Z,16.82
2022-08-04T17:37:24.391Z,17.45
2022-08-04T17:40:26.657Z,18.14
2022-08-04T17:44:04.303Z,18.12
2022-08-04T17:47:12.691Z,19.12
2022-08-04T17:50:25.353Z,19.62
2022-08-04T17:53:52.839Z,19.44
2022-08-04T17:56:57.981Z,21.12
2022-08-04T18:00:01.674Z,21.69
2022-08-04T18:03:04.551Z,22.79
2022-08-04T18:06:14.560Z,23.34
2022-08-04T18:10:02.066Z,23.95
2022-08-04T18:12:47.058Z,25.16
2022-08-04T18:15:51.042Z,25.83
2022-08-04T18:19:11.289Z,26.17
2022-08-04T18:22:27.513Z,26.88
2022-08-04T18:25:51.085Z,27.45
2022-08-04T18:28:54.118Z,27.98
2022-08-04T18:31:57.280Z,28.52
2022-08-04T18:35:05.047Z,28.85
2022-08-04T18:38:11.348Z,28.80
2022-08-04T18:41:26.502Z,28.90
2022-08-04T18:44:29.485Z,28.98
2022-08-04T18:47:59.470Z,29.46
2022-08-04T18:51:09.224Z,29.50
2022-08-04T18:54:16.412Z,30.00
2022-08-04T18:57:32.600Z,30.09
2022-08-04T19:00:45.503Z,30.62
2022-08-04T19:03:53.985Z,30.79
2022-08-04T19:07:23.189Z,31.58
2022-08-04T19:10:26.503Z,32.08
2022-08-04T19:13:34.969Z,32.44
2022-08-04T19:16:38.016Z,32.57
2022-08-04T19:19:49.585Z,32.90
2022-08-04T19:24:11.335Z,33.01
2022-08-04T19:26:27.959Z,33.14
2022-08-04T19:29:37.329Z,33.20
2022-08-04T19:32:41.176Z,33.62
2022-08-04T19:35:50.738Z,34.00
2022-08-04T19:38:53.610Z,34.08
2022-08-04T19:42:04.369Z,33.67
2022-08-04T19:45:15.378Z,34.46
2022-08-04T19:48:20.204Z,34.78
2022-08-04T19:51:23.127Z,35.17
2022-08-04T19:54:30.561Z,35.10
2022-08-04T19:57:36.072Z,35.83
2022-08-04T20:00:40.729Z,36.14
2022-08-04T20:04:09.950Z,35.88
2022-08-04T20:07:14.602Z,35.88
2022-08-04T20:10:18.730Z,36.33
2022-08-04T20:13:37.165Z,35.99
2022-08-04T20:16:40.207Z,36.01
2022-08-04T20:19:51.503Z,36.11
2022-08-04T20:22:54.599Z,35.96
2022-08-04T20:25:57.270Z,35.79
2022-08-04T20:29:01.290Z,36.03
2022-08-04T20:32:05.595Z,36.40
2022-08-04T20:35:14.149Z,37.21
2022-08-04T20:38:33.548Z,37.56
2022-08-04T20:41:37.145Z,37.65
2022-08-04T20:44:46.245Z,38.47
2022-08-04T20:47:54.207Z,38.23
2022-08-04T20:50:57.939Z,38.46
2022-08-04T20:54:00.975Z,38.22
2022-08-04T20:57:03.758Z,38.71
2022-08-04T21:00:13.102Z,38.85
2022-08-04T21:03:16.327Z,38.70
2022-08-04T21:06:19.741Z,38.62
2022-08-04T21:09:26.565Z,38.59
2022-08-04T21:12:41.422Z,38.95
2022-08-04T21:15:58.717Z,39.02
2022-08-04T21:19:04.125Z,39.35
2022-08-04T21:22:10.334Z,39.66
2022-08-04T21:25:16.447Z,39.73
2022-08-04T21:31:50.236Z,40.34
2022-08-04T21:34:57.618Z,40.81
2022-08-04T21:38:01.112Z,41.19
2022-08-04T21:41:05.790Z,41.48
2022-08-04T21:44:09.194Z,41.62
2022-08-04T21:47:26.034Z,41.94
2022-08-04T21:50:37.151Z,41.90
2022-08-04T21:53:39.673Z,42.33
2022-08-04T21:56:50.694Z,42.40
2022-08-04T21:59:54.420Z,42.72
2022-08-04T22:02:59.365Z,42.93
2022-08-04T22:06:02.259Z,43.31
2022-08-04T22:09:06.373Z,43.65
2022-08-04T22:12:20.944Z,44.30
2022-08-04T22:16:03.507Z,44.44
2022-08-04T22:18:48.038Z,44.63
2022-08-04T22:21:51.408Z,44.57
2022-08-04T22:24:54.420Z,45.00
2022-08-04T22:28:04.510Z,45.48
2022-08-04T22:31:23.392Z,45.72
2022-08-04T22:34:30.518Z,45.68
2022-08-04T22:37:35.843Z,46.03
2022-08-04T22:40:47.522Z,46.64
2022-08-04T22:43:55.059Z,46.46
2022-08-04T22:46:57.860Z,46.90
2022-08-04T22:50:27.045Z,47.07
2022-08-04T22:53:27.558Z,47.10
2022-08-04T22:56:38.067Z,47.39
2022-08-04T22:59:43.411Z,47.76
2022-08-04T23:02:46.077Z,47.97
2022-08-04T23:05:52.507Z,47.69
2022-08-04T23:08:55.220Z,48.23
2022-08-04T23:12:15.147Z,48.48
2022-08-04T23:15:20.880Z,48.86
2022-08-04T23:18:24.003Z,48.89
2022-08-04T23:21:41.020Z,48.85
2022-08-04T23:24:49.841Z,49.17
2022-08-04T23:27:52.422Z,48.96
2022-08-04T23:30:56.249Z,48.82
2022-08-04T23:33:59.337Z,48.96
2022-08-04T23:37:03.547Z,48.52
2022-08-04T23:40:32.274Z,48.98
2022-08-04T23:43:38.649Z,49.28
2022-08-04T23:46:53.315Z,49.21
2022-08-04T23:49:58.156Z,49.21
2022-08-04T23:53:02.243Z,49.34
2022-08-04T23:56:07.952Z,48.84
2022-08-04T23:59:17.727Z,49.35
